Sukanuk — MKGN9 — position and weather

sailwx.info

Track history (hours):
 
Tides and Currents Weather Stations Pressure Air Temp Water Temp Dewpoint Dewpoint Depression Visibility Wind Speed Wind Dir Waves Ship Positions

Sukanuk

Last reported at 2013-Jul-27 13:31 UTC. Time now 2014-Oct-21 10:21 UTC.
Position N 54°31' W 003°41'.
Warning: this ship's position is years out of date!

Length 10 m.

Type: Sailing vessel. MMSI: 232005070.

Date/timePositionNaut miles runAvg speedWind from/ knotsBaromVisibWave heightAir tempDewpointWater temp
2013-Jul-27 13:31N 54°31' W 003°41'4 4.2
2013-Jul-27 12:33N 54°29' W 003°47'  
2013-Jul-21 19:32N 52°17' W 005°60'6 5.8
2013-Jul-21 18:31N 52°13' W 006°07'6 6.0
2013-Jul-21 17:33N 52°09' W 006°15'19 5.6
2013-Jul-21 14:10N 52°02' W 006°43'5 3.4
2013-Jul-21 12:33N 52°01' W 006°52'3 2.9
2013-Jul-21 11:33N 51°59' W 006°55'3 3.0
2013-Jul-21 10:32N 51°56' W 006°58'2 1.8
2013-Jul-21 09:33N 51°56' W 007°01'3 3.5
2013-Jul-21 08:33N 51°59' W 007°04'2 2.3
2013-Jul-21 07:33N 52°01' W 007°07'4 3.9
2013-Jul-21 06:34N 51°57' W 007°10'4 3.9
2013-Jul-21 05:31N 51°55' W 007°14'3 3.1
2013-Jul-21 04:30N 51°56' W 007°19'21 2.5
2013-Jul-20 20:04N 51°42' W 007°44'2 3.6
2013-Jul-20 19:33N 51°43' W 007°46'4 3.5
2013-Jul-20 18:32N 51°46' W 007°50'3 2.4
2013-Jul-20 17:12N 51°48' W 007°53'3 4.9
2013-Jul-20 16:32N 51°45' W 007°54'5 5.1
2013-Jul-20 15:34N 51°40' W 007°56'2 1.8
2013-Jul-20 14:34N 51°39' W 007°59'5 4.8
2013-Jul-20 13:34N 51°43' W 008°02'2 2.2
2013-Jul-20 12:33N 51°45' W 008°05'4 4.0
2013-Jul-20 11:33N 51°41' W 008°08'4 4.0
2013-Jul-20 10:33N 51°44' W 008°12'  
2013-Jul-17 16:25N 51°48' W 008°19'0 0.0
2013-Jul-17 15:31N 51°48' W 008°19'2 1.9
2013-Jul-17 14:33N 51°47' W 008°16'5 4.8
2013-Jul-17 13:33N 51°43' W 008°20'  
Track history (hours):
 
Tides and Currents Weather Stations Pressure Air Temp Water Temp Dewpoint Dewpoint Depression Visibility Wind Speed Wind Dir Waves Ship Positions

Sukanuk

Last reported at 2013-Jul-27 13:31 UTC. Time now 2014-Oct-21 10:21 UTC.
Position N 54°31' W 003°41'.
Warning: this ship's position is years out of date!

Length 10 m.

Type: Sailing vessel. MMSI: 232005070.

Date/timePositionNaut miles runAvg speedWind from/ knotsBaromVisibWave heightAir tempDewpointWater temp
2013-Jul-27 13:31N 54°31' W 003°41'4 4.2
2013-Jul-27 12:33N 54°29' W 003°47'  
2013-Jul-21 19:32N 52°17' W 005°60'6 5.8
2013-Jul-21 18:31N 52°13' W 006°07'6 6.0
2013-Jul-21 17:33N 52°09' W 006°15'19 5.6
2013-Jul-21 14:10N 52°02' W 006°43'5 3.4
2013-Jul-21 12:33N 52°01' W 006°52'3 2.9
2013-Jul-21 11:33N 51°59' W 006°55'3 3.0
2013-Jul-21 10:32N 51°56' W 006°58'2 1.8
2013-Jul-21 09:33N 51°56' W 007°01'3 3.5
2013-Jul-21 08:33N 51°59' W 007°04'2 2.3
2013-Jul-21 07:33N 52°01' W 007°07'4 3.9
2013-Jul-21 06:34N 51°57' W 007°10'4 3.9
2013-Jul-21 05:31N 51°55' W 007°14'3 3.1
2013-Jul-21 04:30N 51°56' W 007°19'21 2.5
2013-Jul-20 20:04N 51°42' W 007°44'2 3.6
2013-Jul-20 19:33N 51°43' W 007°46'4 3.5
2013-Jul-20 18:32N 51°46' W 007°50'3 2.4
2013-Jul-20 17:12N 51°48' W 007°53'3 4.9
2013-Jul-20 16:32N 51°45' W 007°54'5 5.1
2013-Jul-20 15:34N 51°40' W 007°56'2 1.8
2013-Jul-20 14:34N 51°39' W 007°59'5 4.8
2013-Jul-20 13:34N 51°43' W 008°02'2 2.2
2013-Jul-20 12:33N 51°45' W 008°05'4 4.0
2013-Jul-20 11:33N 51°41' W 008°08'4 4.0
2013-Jul-20 10:33N 51°44' W 008°12'  
2013-Jul-17 16:25N 51°48' W 008°19'0 0.0
2013-Jul-17 15:31N 51°48' W 008°19'2 1.9
2013-Jul-17 14:33N 51°47' W 008°16'5 4.8
2013-Jul-17 13:33N 51°43' W 008°20'  

Dump ship's entire track history